createdAt,value
2023-05-16T00:00:55.651Z,2.27
2023-05-16T00:03:22.529Z,2.53
2023-05-16T00:05:50.785Z,2.83
2023-05-16T00:08:17.898Z,2.90
2023-05-16T00:10:44.863Z,2.80
2023-05-16T00:13:11.813Z,3.40
2023-05-16T00:15:38.892Z,2.73
2023-05-16T00:18:06.280Z,2.50
2023-05-16T00:20:33.257Z,3.10
2023-05-16T00:23:01.446Z,2.60
2023-05-16T00:25:29.016Z,2.50
2023-05-16T00:27:56.004Z,3.13
2023-05-16T00:30:23.047Z,2.80
2023-05-16T00:32:50.070Z,3.00
2023-05-16T00:35:16.911Z,2.93
2023-05-16T00:37:43.794Z,2.93
2023-05-16T00:40:11.207Z,3.83
2023-05-16T00:42:39.030Z,3.57
2023-05-16T00:45:07.054Z,3.00
2023-05-16T00:47:34.025Z,2.90
2023-05-16T00:50:01.330Z,3.17
2023-05-16T00:52:28.866Z,2.97
2023-05-16T00:54:55.785Z,3.50
2023-05-16T00:57:23.480Z,3.03
2023-05-16T00:59:50.907Z,3.77
2023-05-16T01:02:18.239Z,5.57
2023-05-16T01:04:46.163Z,3.33
2023-05-16T01:07:13.106Z,3.20
2023-05-16T01:09:40.318Z,3.50
2023-05-16T01:12:21.305Z,2.93
2023-05-16T01:14:59.886Z,4.40
2023-05-16T01:17:34.543Z,2.80
2023-05-16T01:20:15.785Z,2.47
2023-05-16T01:22:46.269Z,3.23
2023-05-16T01:25:18.959Z,3.87
2023-05-16T01:27:46.663Z,3.67
2023-05-16T01:30:18.765Z,4.03
2023-05-16T01:32:46.083Z,3.30
2023-05-16T01:35:16.189Z,3.07
2023-05-16T01:37:58.035Z,2.80
2023-05-16T01:40:54.088Z,3.37
2023-05-16T01:43:31.041Z,3.00
2023-05-16T01:46:04.677Z,2.73
2023-05-16T01:48:42.533Z,2.97
2023-05-16T01:51:11.056Z,2.97
2023-05-16T01:53:39.238Z,2.60
2023-05-16T01:56:11.390Z,2.90
2023-05-16T01:58:38.994Z,3.23
2023-05-16T02:01:07.468Z,3.30
2023-05-16T02:03:35.079Z,2.13
2023-05-16T02:06:02.036Z,2.10
2023-05-16T02:08:29.633Z,3.13
2023-05-16T02:10:56.460Z,3.03
2023-05-16T02:13:23.444Z,5.00
2023-05-16T02:15:50.536Z,2.57
2023-05-16T02:18:18.840Z,2.53
2023-05-16T02:20:45.885Z,2.90
2023-05-16T02:23:12.930Z,3.03
2023-05-16T02:25:39.813Z,2.50
2023-05-16T02:28:07.041Z,2.43
2023-05-16T02:30:34.081Z,2.70
2023-05-16T02:33:01.023Z,2.67
2023-05-16T02:35:27.971Z,2.80
2023-05-16T02:37:56.253Z,2.70
2023-05-16T02:40:23.106Z,2.30
2023-05-16T02:42:49.923Z,2.47
2023-05-16T02:45:16.910Z,3.50
2023-05-16T02:47:43.776Z,3.60
2023-05-16T02:50:11.036Z,2.67
2023-05-16T02:52:37.940Z,3.00
2023-05-16T02:55:21.087Z,2.27
2023-05-16T02:57:49.011Z,2.37
2023-05-16T03:00:18.385Z,2.53
2023-05-16T03:02:45.867Z,3.87
2023-05-16T03:05:12.843Z,2.63
2023-05-16T03:07:39.859Z,2.67
2023-05-16T03:10:07.472Z,3.13
2023-05-16T03:12:34.321Z,2.77
2023-05-16T03:15:02.015Z,3.20
2023-05-16T03:17:29.126Z,2.43
2023-05-16T03:19:56.089Z,2.40
2023-05-16T03:22:22.882Z,3.53
2023-05-16T03:24:49.711Z,2.50
2023-05-16T03:27:16.617Z,3.23
2023-05-16T03:29:43.463Z,3.10
2023-05-16T03:32:11.815Z,2.53
2023-05-16T03:34:38.767Z,4.07
2023-05-16T03:37:06.056Z,2.10
2023-05-16T03:39:32.901Z,3.20
2023-05-16T03:41:59.760Z,2.53
2023-05-16T03:44:26.563Z,2.40
2023-05-16T03:46:54.394Z,4.30
2023-05-16T03:49:25.873Z,2.40
2023-05-16T03:51:52.712Z,3.20
2023-05-16T03:54:19.552Z,3.00
2023-05-16T03:56:46.361Z,2.93
2023-05-16T03:59:13.360Z,2.60
2023-05-16T04:01:40.302Z,2.47
2023-05-16T04:04:07.351Z,3.63
2023-05-16T04:06:34.513Z,2.93
2023-05-16T04:09:01.354Z,2.63
2023-05-16T04:11:28.662Z,2.90
2023-05-16T04:13:55.934Z,2.60
2023-05-16T04:19:02.233Z,2.60
2023-05-16T04:21:29.160Z,2.60
2023-05-16T04:23:56.654Z,2.67
2023-05-16T04:26:25.037Z,1.67
2023-05-16T04:28:51.985Z,2.20
2023-05-16T04:31:18.943Z,3.10
2023-05-16T04:33:46.148Z,2.23
2023-05-16T04:36:13.214Z,1.63
2023-05-16T04:38:40.394Z,1.93
2023-05-16T04:41:07.315Z,2.90
2023-05-16T04:43:34.223Z,2.63
2023-05-16T04:46:01.475Z,2.93
2023-05-16T04:48:28.312Z,2.60
2023-05-16T04:50:55.718Z,2.93
2023-05-16T04:53:22.581Z,2.67
2023-05-16T04:55:49.449Z,2.90
2023-05-16T04:58:16.364Z,2.97
2023-05-16T05:00:43.361Z,5.43
2023-05-16T05:03:10.409Z,3.63
2023-05-16T05:05:37.713Z,5.10
2023-05-16T05:08:05.060Z,2.40
2023-05-16T05:10:31.895Z,2.50
2023-05-16T05:12:58.899Z,2.80
2023-05-16T05:15:25.909Z,2.70
2023-05-16T05:17:53.239Z,2.13
2023-05-16T05:20:20.390Z,2.30
2023-05-16T05:22:47.332Z,3.10
2023-05-16T05:25:14.382Z,2.70
2023-05-16T05:27:41.327Z,2.00
2023-05-16T05:30:08.625Z,2.73
2023-05-16T05:32:35.696Z,2.53
2023-05-16T05:35:02.666Z,2.00
2023-05-16T05:37:29.596Z,2.50
2023-05-16T05:39:56.810Z,2.30
2023-05-16T05:42:23.670Z,2.33
2023-05-16T05:44:50.649Z,2.70
2023-05-16T05:47:17.680Z,2.33
2023-05-16T05:49:44.631Z,2.57
2023-05-16T05:52:11.520Z,2.20
2023-05-16T05:54:38.447Z,2.63
2023-05-16T05:57:05.605Z,2.27
2023-05-16T05:59:32.500Z,2.40
2023-05-16T06:01:59.552Z,2.33
2023-05-16T06:04:26.517Z,3.10
2023-05-16T06:06:53.409Z,2.40
2023-05-16T06:09:21.795Z,2.23
2023-05-16T06:11:48.843Z,2.83
2023-05-16T06:14:16.388Z,6.23
2023-05-16T06:16:43.768Z,4.90
2023-05-16T06:19:12.643Z,2.60
2023-05-16T06:21:39.696Z,2.47
2023-05-16T06:24:06.618Z,2.20
2023-05-16T06:26:34.063Z,2.60
2023-05-16T06:29:00.878Z,4.10
2023-05-16T06:31:27.707Z,2.87
2023-05-16T06:33:54.549Z,2.53
2023-05-16T06:36:21.367Z,2.83
2023-05-16T06:38:48.501Z,2.30
2023-05-16T06:41:15.374Z,3.00
2023-05-16T06:43:42.323Z,2.70
2023-05-16T06:46:09.291Z,2.77
2023-05-16T06:48:36.241Z,2.17
2023-05-16T06:51:03.805Z,2.10
2023-05-16T06:53:31.296Z,3.23
2023-05-16T06:55:58.367Z,2.80
2023-05-16T06:58:25.545Z,1.90
2023-05-16T07:00:52.427Z,2.57
2023-05-16T07:03:19.407Z,1.90
2023-05-16T07:05:46.372Z,2.70
2023-05-16T07:08:13.270Z,2.33
2023-05-16T07:10:40.417Z,2.90
2023-05-16T07:13:07.398Z,2.80
2023-05-16T07:15:34.403Z,3.50
2023-05-16T07:18:01.405Z,1.90
2023-05-16T07:20:28.281Z,2.80
2023-05-16T07:22:57.649Z,2.20
2023-05-16T07:25:25.676Z,1.73
2023-05-16T07:27:52.766Z,2.13
2023-05-16T07:30:19.815Z,2.20
2023-05-16T07:32:46.794Z,2.30
2023-05-16T07:35:13.914Z,2.00
2023-05-16T07:37:42.698Z,2.07
2023-05-16T07:40:11.095Z,2.07
2023-05-16T07:42:38.012Z,2.20
2023-05-16T07:45:07.152Z,2.93
2023-05-16T07:47:34.400Z,8.23
2023-05-16T07:50:01.471Z,2.70
2023-05-16T07:52:28.433Z,2.80
2023-05-16T07:54:55.340Z,2.17
2023-05-16T07:57:24.055Z,2.43
2023-05-16T07:59:52.741Z,2.20
2023-05-16T08:02:20.096Z,2.10
2023-05-16T08:04:47.195Z,1.70
2023-05-16T08:07:14.120Z,1.47
2023-05-16T08:09:41.052Z,1.97
2023-05-16T08:12:08.975Z,2.30
2023-05-16T08:14:37.262Z,1.87
2023-05-16T08:17:04.755Z,1.87
2023-05-16T08:19:33.124Z,1.93
2023-05-16T08:22:00.087Z,1.60
2023-05-16T08:24:27.073Z,2.63
2023-05-16T08:26:53.989Z,1.30
2023-05-16T08:29:21.179Z,1.40
2023-05-16T08:31:48.564Z,1.43
2023-05-16T08:34:16.101Z,1.80
2023-05-16T08:36:43.162Z,1.77
2023-05-16T08:39:11.830Z,1.13
2023-05-16T08:41:39.154Z,2.13
2023-05-16T08:44:06.622Z,1.50
2023-05-16T08:46:36.006Z,1.73
2023-05-16T08:49:08.036Z,3.20
2023-05-16T08:51:37.040Z,1.53
2023-05-16T08:54:06.811Z,1.60
2023-05-16T08:56:35.284Z,1.63
2023-05-16T08:59:03.459Z,2.60
2023-05-16T09:01:32.571Z,1.70
2023-05-16T09:04:00.553Z,1.27
2023-05-16T09:06:28.197Z,1.00
2023-05-16T09:08:55.355Z,1.33
2023-05-16T09:11:22.515Z,1.13
2023-05-16T09:13:49.770Z,1.10
2023-05-16T09:16:18.377Z,1.50
2023-05-16T09:18:47.831Z,1.70
2023-05-16T09:21:16.065Z,1.63
2023-05-16T09:23:44.333Z,0.90
2023-05-16T09:26:12.112Z,1.10
2023-05-16T09:28:39.946Z,1.40
2023-05-16T09:31:27.051Z,1.17
2023-05-16T09:33:56.631Z,1.80
2023-05-16T09:36:23.714Z,1.67
2023-05-16T09:38:52.512Z,2.50
2023-05-16T09:41:19.418Z,1.13
2023-05-16T09:43:46.885Z,1.60
2023-05-16T09:46:17.164Z,1.37
2023-05-16T09:48:48.177Z,1.10
2023-05-16T09:51:15.721Z,3.53
2023-05-16T09:53:43.552Z,1.20
2023-05-16T09:56:15.157Z,1.20
2023-05-16T09:58:43.947Z,0.80
2023-05-16T10:01:11.792Z,1.30
2023-05-16T10:03:40.720Z,1.43
2023-05-16T10:06:09.231Z,1.63
2023-05-16T10:08:37.204Z,1.17
2023-05-16T10:11:06.610Z,1.20
2023-05-16T10:13:35.376Z,0.80
2023-05-16T10:16:14.241Z,2.50
2023-05-16T10:18:42.866Z,2.00
2023-05-16T10:21:14.706Z,1.03
2023-05-16T10:23:43.212Z,1.40
2023-05-16T10:26:11.503Z,1.00
2023-05-16T10:28:39.004Z,1.00
2023-05-16T10:31:07.677Z,1.20
2023-05-16T10:33:36.377Z,1.47
2023-05-16T10:36:05.744Z,1.30
2023-05-16T10:38:33.917Z,1.20
2023-05-16T10:41:01.673Z,1.80
2023-05-16T10:43:31.191Z,1.30
2023-05-16T10:46:04.160Z,0.70
2023-05-16T10:48:36.251Z,1.60
2023-05-16T10:51:04.791Z,0.93
2023-05-16T10:53:35.830Z,0.70
2023-05-16T10:56:03.437Z,0.80
2023-05-16T10:58:39.179Z,0.90
2023-05-16T11:01:16.554Z,0.60
2023-05-16T11:04:12.932Z,0.70
2023-05-16T11:06:42.699Z,1.27
2023-05-16T11:09:13.726Z,0.93
2023-05-16T11:11:53.190Z,1.13
2023-05-16T11:14:36.111Z,0.73
2023-05-16T11:17:13.865Z,0.60
2023-05-16T11:19:48.071Z,0.73
2023-05-16T11:22:22.547Z,0.93
2023-05-16T11:24:57.421Z,1.03
2023-05-16T11:27:34.524Z,0.90
2023-05-16T11:30:15.715Z,0.80
2023-05-16T11:32:47.491Z,0.50
2023-05-16T11:35:17.127Z,0.87
2023-05-16T11:37:45.831Z,0.90
2023-05-16T11:40:14.758Z,0.70
2023-05-16T11:42:47.938Z,0.80
2023-05-16T11:45:28.427Z,0.73
2023-05-16T11:48:02.146Z,0.80
2023-05-16T11:50:29.236Z,0.77
2023-05-16T11:52:57.725Z,0.80
2023-05-16T11:55:41.956Z,1.17
2023-05-16T11:58:10.847Z,0.90
2023-05-16T12:00:47.466Z,0.90
2023-05-16T12:03:14.585Z,1.00
2023-05-16T12:05:52.359Z,0.93
2023-05-16T12:08:21.427Z,1.00
2023-05-16T12:10:53.240Z,0.80
2023-05-16T12:13:22.939Z,0.80
2023-05-16T12:15:51.366Z,0.70
2023-05-16T12:18:18.581Z,1.17
2023-05-16T12:20:45.824Z,0.77
2023-05-16T12:23:13.881Z,0.80
2023-05-16T12:25:47.363Z,0.90
2023-05-16T12:28:15.260Z,1.30
2023-05-16T12:30:44.423Z,1.00
2023-05-16T12:33:13.333Z,0.80
2023-05-16T12:35:42.350Z,1.07
2023-05-16T12:38:11.927Z,1.00
2023-05-16T12:40:40.227Z,0.83
2023-05-16T12:43:33.465Z,1.10
2023-05-16T12:46:01.335Z,0.67
2023-05-16T12:48:37.390Z,1.50
2023-05-16T12:51:15.461Z,0.90
2023-05-16T12:53:45.792Z,0.70
2023-05-16T12:56:16.514Z,0.77
2023-05-16T12:58:43.777Z,1.10
2023-05-16T13:01:12.043Z,0.80
2023-05-16T13:03:39.205Z,0.90
2023-05-16T13:06:06.466Z,0.67
2023-05-16T13:08:33.417Z,0.60
2023-05-16T13:11:00.381Z,1.57
2023-05-16T13:13:35.817Z,1.03
2023-05-16T13:16:13.526Z,1.43
2023-05-16T13:18:40.638Z,1.37
2023-05-16T13:21:07.666Z,1.40
2023-05-16T13:23:34.522Z,1.00
2023-05-16T13:26:01.470Z,1.20
2023-05-16T13:28:28.319Z,1.07
2023-05-16T13:30:55.628Z,1.10
2023-05-16T13:33:23.233Z,1.40
2023-05-16T13:35:50.204Z,1.10
2023-05-16T13:38:17.158Z,1.10
2023-05-16T13:40:44.025Z,1.93
2023-05-16T13:43:11.142Z,1.30
2023-05-16T13:45:38.043Z,1.13
2023-05-16T13:48:05.439Z,1.23
2023-05-16T13:50:34.100Z,1.50
2023-05-16T13:53:01.189Z,1.23
2023-05-16T13:55:28.652Z,0.93
2023-05-16T13:57:55.919Z,1.27
2023-05-16T14:02:53.097Z,1.40
2023-05-16T14:05:20.216Z,1.10
2023-05-16T14:07:47.547Z,1.67
2023-05-16T14:10:14.548Z,1.17
2023-05-16T14:12:41.513Z,1.10
2023-05-16T14:15:08.876Z,1.27
2023-05-16T14:17:36.097Z,1.60
2023-05-16T14:20:04.375Z,1.47
2023-05-16T14:22:32.665Z,0.93
2023-05-16T14:24:59.622Z,1.00
2023-05-16T14:27:26.645Z,1.63
2023-05-16T14:29:53.536Z,1.80
2023-05-16T14:32:21.256Z,1.40
2023-05-16T14:34:48.442Z,1.50
2023-05-16T14:37:16.409Z,1.43
2023-05-16T14:39:48.565Z,1.10
2023-05-16T14:42:15.413Z,1.80
2023-05-16T14:44:42.265Z,1.53
2023-05-16T14:47:09.140Z,1.27
2023-05-16T14:49:36.000Z,2.43
2023-05-16T14:52:02.855Z,1.10
2023-05-16T14:54:29.751Z,1.07
2023-05-16T14:56:56.730Z,1.20
2023-05-16T14:59:23.927Z,1.80
2023-05-16T15:01:50.881Z,1.40
2023-05-16T15:04:17.832Z,1.30
2023-05-16T15:06:44.718Z,1.10
2023-05-16T15:09:11.700Z,1.53
2023-05-16T15:11:38.594Z,1.43
2023-05-16T15:14:06.711Z,1.00
2023-05-16T15:19:14.501Z,1.00
2023-05-16T15:21:41.905Z,0.90
2023-05-16T15:24:08.960Z,1.70
2023-05-16T15:26:35.948Z,1.07
2023-05-16T15:29:02.903Z,1.43
2023-05-16T15:31:31.642Z,1.50
2023-05-16T15:33:58.597Z,1.37
2023-05-16T15:36:25.896Z,1.63
2023-05-16T15:38:53.167Z,1.20
2023-05-16T15:41:37.151Z,1.20
2023-05-16T15:44:08.107Z,1.30
2023-05-16T15:46:35.088Z,1.17
2023-05-16T15:49:02.056Z,3.23
2023-05-16T15:51:28.917Z,6.13
2023-05-16T15:53:55.816Z,2.30
2023-05-16T15:56:22.779Z,1.57
2023-05-16T15:58:49.748Z,2.20
2023-05-16T16:01:16.799Z,1.67
2023-05-16T16:03:44.019Z,1.60
2023-05-16T16:06:11.101Z,3.37
2023-05-16T16:08:37.979Z,1.87
2023-05-16T16:11:05.551Z,2.50
2023-05-16T16:13:33.177Z,1.67
2023-05-16T16:16:00.151Z,2.67
2023-05-16T16:18:27.273Z,1.23
2023-05-16T16:20:54.204Z,1.23
2023-05-16T16:23:21.872Z,1.40
2023-05-16T16:25:48.972Z,3.43
2023-05-16T16:28:16.048Z,1.33
2023-05-16T16:30:44.829Z,1.17
2023-05-16T16:33:11.808Z,1.50
2023-05-16T16:35:38.741Z,1.80
2023-05-16T16:38:07.153Z,1.33
2023-05-16T16:40:35.082Z,1.30
2023-05-16T16:43:01.990Z,1.10
2023-05-16T16:45:29.141Z,1.77
2023-05-16T16:47:56.784Z,1.77
2023-05-16T16:50:23.738Z,1.00
2023-05-16T16:52:50.776Z,1.50
2023-05-16T16:55:17.714Z,2.07
2023-05-16T16:57:44.644Z,1.17
2023-05-16T17:00:12.106Z,1.40
2023-05-16T17:02:39.050Z,1.30
2023-05-16T17:05:07.094Z,1.20
2023-05-16T17:07:37.347Z,1.27
2023-05-16T17:10:04.967Z,1.17
2023-05-16T17:12:34.847Z,2.27
2023-05-16T17:15:02.358Z,1.20
2023-05-16T17:17:29.526Z,1.50
2023-05-16T17:19:56.472Z,1.63
2023-05-16T17:22:23.476Z,0.90
2023-05-16T17:24:50.555Z,1.60
2023-05-16T17:27:17.477Z,1.90
2023-05-16T17:29:44.330Z,1.47
2023-05-16T17:32:11.304Z,1.73
2023-05-16T17:34:38.181Z,2.43
2023-05-16T17:37:06.652Z,1.30
2023-05-16T17:39:34.269Z,1.57
2023-05-16T17:42:01.163Z,1.10
2023-05-16T17:44:28.044Z,4.87
2023-05-16T17:46:54.969Z,1.67
2023-05-16T17:49:21.935Z,1.70
2023-05-16T17:51:50.821Z,1.50
2023-05-16T17:54:18.695Z,1.87
2023-05-16T17:56:46.788Z,1.60
2023-05-16T17:59:14.288Z,1.60
2023-05-16T18:01:41.746Z,1.50
2023-05-16T18:04:08.959Z,2.30
2023-05-16T18:06:39.212Z,1.20
2023-05-16T18:09:10.501Z,1.90
2023-05-16T18:11:39.224Z,1.03
2023-05-16T18:14:06.307Z,1.50
2023-05-16T18:16:33.388Z,1.93
2023-05-16T18:19:00.433Z,1.63
2023-05-16T18:21:27.849Z,2.00
2023-05-16T18:23:55.591Z,1.50
2023-05-16T18:26:25.511Z,1.30
2023-05-16T18:28:52.468Z,1.37
2023-05-16T18:31:19.383Z,2.23
2023-05-16T18:33:46.757Z,1.40
2023-05-16T18:36:13.691Z,1.40
2023-05-16T18:38:40.776Z,1.53
2023-05-16T18:41:07.841Z,1.53
2023-05-16T18:43:36.656Z,1.87
2023-05-16T18:46:04.439Z,1.50
2023-05-16T18:48:32.413Z,1.10
2023-05-16T18:51:00.518Z,1.83
2023-05-16T18:53:27.510Z,2.23
2023-05-16T18:55:54.435Z,1.90
2023-05-16T18:58:21.463Z,2.50
2023-05-16T19:00:48.532Z,1.53
2023-05-16T19:03:15.469Z,1.20
2023-05-16T19:05:42.599Z,3.00
2023-05-16T19:08:09.643Z,1.40
2023-05-16T19:10:38.669Z,1.37
2023-05-16T19:13:09.110Z,1.20
2023-05-16T19:15:37.043Z,1.47
2023-05-16T19:18:05.239Z,1.43
2023-05-16T19:20:33.844Z,2.53
2023-05-16T19:23:01.198Z,1.60
2023-05-16T19:28:09.137Z,1.40
2023-05-16T19:30:38.096Z,2.47
2023-05-16T19:33:06.681Z,2.30
2023-05-16T19:35:33.646Z,1.40
2023-05-16T19:38:00.884Z,1.10
2023-05-16T19:40:28.142Z,1.30
2023-05-16T19:42:55.041Z,1.23
2023-05-16T19:45:22.084Z,1.20
2023-05-16T19:47:48.971Z,1.57
2023-05-16T19:50:16.048Z,1.70
2023-05-16T19:52:42.961Z,2.27
2023-05-16T19:55:10.737Z,1.70
2023-05-16T19:57:37.670Z,1.20
2023-05-16T20:00:05.645Z,1.27
2023-05-16T20:02:33.194Z,1.50
2023-05-16T20:05:00.203Z,1.90
2023-05-16T20:07:27.701Z,1.93
2023-05-16T20:09:54.982Z,1.90
2023-05-16T20:12:21.982Z,1.60
2023-05-16T20:14:49.137Z,1.57
2023-05-16T20:17:16.076Z,1.17
2023-05-16T20:19:44.161Z,1.90
2023-05-16T20:22:11.664Z,1.17
2023-05-16T20:24:38.672Z,1.30
2023-05-16T20:27:06.025Z,1.47
2023-05-16T20:29:34.054Z,1.90
2023-05-16T20:32:01.182Z,1.57
2023-05-16T20:34:28.337Z,2.20
2023-05-16T20:36:55.251Z,2.03
2023-05-16T20:39:22.153Z,1.80
2023-05-16T20:41:49.086Z,1.57
2023-05-16T20:44:16.095Z,2.33
2023-05-16T20:46:43.447Z,2.10
2023-05-16T20:49:10.426Z,2.40
2023-05-16T20:51:37.343Z,1.67
2023-05-16T20:54:04.377Z,1.40
2023-05-16T20:56:31.320Z,1.70
2023-05-16T20:58:58.180Z,1.67
2023-05-16T21:01:25.258Z,1.73
2023-05-16T21:03:52.153Z,1.90
2023-05-16T21:06:19.039Z,1.70
2023-05-16T21:08:46.009Z,1.00
2023-05-16T21:11:12.891Z,1.37
2023-05-16T21:13:39.739Z,1.43
2023-05-16T21:16:06.840Z,1.77
2023-05-16T21:18:33.816Z,1.40
2023-05-16T21:21:01.071Z,2.40
2023-05-16T21:23:28.048Z,1.30
2023-05-16T21:25:54.938Z,1.87
2023-05-16T21:28:21.824Z,1.10
2023-05-16T21:30:48.915Z,1.77
2023-05-16T21:33:16.057Z,1.40
2023-05-16T21:35:43.035Z,1.50
2023-05-16T21:38:10.039Z,1.60
2023-05-16T21:40:36.975Z,1.50
2023-05-16T21:43:03.858Z,1.70
2023-05-16T21:45:30.852Z,1.37
2023-05-16T21:47:57.864Z,1.60
2023-05-16T21:50:24.798Z,1.40
2023-05-16T21:52:51.690Z,1.50
2023-05-16T21:55:18.575Z,1.50
2023-05-16T21:57:45.474Z,1.60
2023-05-16T22:00:13.045Z,1.30
2023-05-16T22:02:39.983Z,1.70
2023-05-16T22:05:07.593Z,1.70
2023-05-16T22:07:34.778Z,1.90
2023-05-16T22:10:02.106Z,1.93
2023-05-16T22:12:29.134Z,1.97
2023-05-16T22:14:56.222Z,1.90
2023-05-16T22:17:23.353Z,2.00
2023-05-16T22:19:50.487Z,1.70
2023-05-16T22:22:17.464Z,2.43
2023-05-16T22:24:44.557Z,2.10
2023-05-16T22:27:11.525Z,2.33
2023-05-16T22:29:38.514Z,2.47
2023-05-16T22:32:09.953Z,2.97
2023-05-16T22:34:40.738Z,2.30
2023-05-16T22:37:09.058Z,2.60
2023-05-16T22:39:36.336Z,2.30
2023-05-16T22:42:03.810Z,1.97
2023-05-16T22:44:30.813Z,2.27
2023-05-16T22:46:57.675Z,2.80
2023-05-16T22:49:27.742Z,2.30
2023-05-16T22:51:54.635Z,3.10
2023-05-16T22:54:21.540Z,2.50
2023-05-16T22:56:48.411Z,3.00
2023-05-16T22:59:15.371Z,3.10
2023-05-16T23:01:42.257Z,2.97
2023-05-16T23:04:09.287Z,2.73
2023-05-16T23:06:36.336Z,3.47
2023-05-16T23:09:04.843Z,3.47
2023-05-16T23:11:32.562Z,3.73
2023-05-16T23:13:59.470Z,3.80
2023-05-16T23:16:26.402Z,4.30
2023-05-16T23:18:53.406Z,3.77
2023-05-16T23:21:20.499Z,4.00
2023-05-16T23:23:47.355Z,4.70
2023-05-16T23:26:14.258Z,3.63
2023-05-16T23:28:41.183Z,4.30
2023-05-16T23:31:08.143Z,4.33
2023-05-16T23:33:35.156Z,5.03
2023-05-16T23:36:02.051Z,4.57
2023-05-16T23:38:31.725Z,5.27
2023-05-16T23:40:58.618Z,3.87
2023-05-16T23:43:25.580Z,3.70
2023-05-16T23:45:52.764Z,4.17
2023-05-16T23:48:19.854Z,4.63
2023-05-16T23:50:52.298Z,3.50
2023-05-16T23:53:19.462Z,4.80
2023-05-16T23:55:46.894Z,3.80
2023-05-16T23:58:13.873Z,4.87
